sensor_id;sensor_type;location;lat;lon;timestamp;P1;durP1;ratioP1;P2;durP2;ratioP2
9892;SDS011;4985;49.092;8.542;2022-09-21T00:00:10;1.80;;;1.57;;
9892;SDS011;4985;49.092;8.542;2022-09-21T00:02:38;3.50;;;2.17;;
9892;SDS011;4985;49.092;8.542;2022-09-21T00:05:05;2.40;;;1.50;;
9892;SDS011;4985;49.092;8.542;2022-09-21T00:07:31;2.93;;;1.97;;
9892;SDS011;4985;49.092;8.542;2022-09-21T00:09:58;3.00;;;2.07;;
9892;SDS011;4985;49.092;8.542;2022-09-21T00:12:25;2.40;;;1.60;;
9892;SDS011;4985;49.092;8.542;2022-09-21T00:14:52;1.97;;;1.77;;
9892;SDS011;4985;49.092;8.542;2022-09-21T00:17:22;2.47;;;1.83;;
9892;SDS011;4985;49.092;8.542;2022-09-21T00:19:48;1.70;;;1.60;;
9892;SDS011;4985;49.092;8.542;2022-09-21T00:22:15;3.17;;;1.83;;
9892;SDS011;4985;49.092;8.542;2022-09-21T00:24:42;5.40;;;1.80;;
9892;SDS011;4985;49.092;8.542;2022-09-21T00:27:08;2.23;;;1.60;;
9892;SDS011;4985;49.092;8.542;2022-09-21T00:29:35;3.20;;;1.57;;
9892;SDS011;4985;49.092;8.542;2022-09-21T00:32:02;1.63;;;1.47;;
9892;SDS011;4985;49.092;8.542;2022-09-21T00:34:29;2.60;;;1.53;;
9892;SDS011;4985;49.092;8.542;2022-09-21T00:36:57;1.70;;;1.50;;
9892;SDS011;4985;49.092;8.542;2022-09-21T00:39:23;2.37;;;1.53;;
9892;SDS011;4985;49.092;8.542;2022-09-21T00:41:50;3.60;;;1.73;;
9892;SDS011;4985;49.092;8.542;2022-09-21T00:44:27;2.37;;;1.57;;
9892;SDS011;4985;49.092;8.542;2022-09-21T00:46:56;2.63;;;1.67;;
9892;SDS011;4985;49.092;8.542;2022-09-21T00:49:26;1.97;;;1.70;;
9892;SDS011;4985;49.092;8.542;2022-09-21T00:51:55;3.47;;;2.00;;
9892;SDS011;4985;49.092;8.542;2022-09-21T00:54:24;2.00;;;1.47;;
9892;SDS011;4985;49.092;8.542;2022-09-21T00:56:57;2.10;;;1.50;;
9892;SDS011;4985;49.092;8.542;2022-09-21T00:59:27;4.10;;;1.77;;
9892;SDS011;4985;49.092;8.542;2022-09-21T01:01:56;2.83;;;1.67;;
9892;SDS011;4985;49.092;8.542;2022-09-21T01:04:24;3.90;;;1.63;;
9892;SDS011;4985;49.092;8.542;2022-09-21T01:06:52;3.13;;;1.43;;
9892;SDS011;4985;49.092;8.542;2022-09-21T01:09:21;3.30;;;1.77;;
9892;SDS011;4985;49.092;8.542;2022-09-21T01:11:51;1.70;;;1.50;;
9892;SDS011;4985;49.092;8.542;2022-09-21T01:14:36;2.23;;;1.73;;
9892;SDS011;4985;49.092;8.542;2022-09-21T01:17:17;2.13;;;1.60;;
9892;SDS011;4985;49.092;8.542;2022-09-21T01:22:57;2.00;;;1.43;;
9892;SDS011;4985;49.092;8.542;2022-09-21T01:25:36;3.83;;;1.77;;
9892;SDS011;4985;49.092;8.542;2022-09-21T01:28:16;1.77;;;1.53;;
9892;SDS011;4985;49.092;8.542;2022-09-21T01:30:51;2.23;;;1.70;;
9892;SDS011;4985;49.092;8.542;2022-09-21T01:33:21;2.03;;;1.50;;
9892;SDS011;4985;49.092;8.542;2022-09-21T01:35:53;2.13;;;1.50;;
9892;SDS011;4985;49.092;8.542;2022-09-21T01:38:23;3.00;;;1.70;;
9892;SDS011;4985;49.092;8.542;2022-09-21T01:40:54;1.47;;;1.33;;
9892;SDS011;4985;49.092;8.542;2022-09-21T01:43:25;2.20;;;1.53;;
9892;SDS011;4985;49.092;8.542;2022-09-21T01:45:56;2.27;;;1.67;;
9892;SDS011;4985;49.092;8.542;2022-09-21T01:48:26;2.43;;;1.63;;
9892;SDS011;4985;49.092;8.542;2022-09-21T01:50:59;1.70;;;1.60;;
9892;SDS011;4985;49.092;8.542;2022-09-21T01:53:30;3.03;;;1.57;;
9892;SDS011;4985;49.092;8.542;2022-09-21T01:56:03;4.17;;;1.53;;
9892;SDS011;4985;49.092;8.542;2022-09-21T01:58:37;3.17;;;1.77;;
9892;SDS011;4985;49.092;8.542;2022-09-21T02:01:10;3.43;;;1.63;;
9892;SDS011;4985;49.092;8.542;2022-09-21T02:03:40;2.50;;;1.80;;
9892;SDS011;4985;49.092;8.542;2022-09-21T02:06:10;2.10;;;1.80;;
9892;SDS011;4985;49.092;8.542;2022-09-21T02:08:37;2.57;;;1.43;;
9892;SDS011;4985;49.092;8.542;2022-09-21T02:11:05;3.37;;;1.57;;
9892;SDS011;4985;49.092;8.542;2022-09-21T02:13:32;2.70;;;1.70;;
9892;SDS011;4985;49.092;8.542;2022-09-21T02:16:08;2.50;;;1.60;;
9892;SDS011;4985;49.092;8.542;2022-09-21T02:18:51;2.47;;;1.80;;
9892;SDS011;4985;49.092;8.542;2022-09-21T02:21:29;1.83;;;1.53;;
9892;SDS011;4985;49.092;8.542;2022-09-21T02:24:01;2.53;;;1.47;;
9892;SDS011;4985;49.092;8.542;2022-09-21T02:26:34;2.07;;;1.60;;
9892;SDS011;4985;49.092;8.542;2022-09-21T02:29:06;2.23;;;1.60;;
9892;SDS011;4985;49.092;8.542;2022-09-21T02:31:43;3.10;;;1.53;;
9892;SDS011;4985;49.092;8.542;2022-09-21T02:34:16;2.00;;;1.77;;
9892;SDS011;4985;49.092;8.542;2022-09-21T02:36:48;2.17;;;1.67;;
9892;SDS011;4985;49.092;8.542;2022-09-21T02:39:23;5.27;;;1.63;;
9892;SDS011;4985;49.092;8.542;2022-09-21T02:42:00;1.90;;;1.70;;
9892;SDS011;4985;49.092;8.542;2022-09-21T02:44:33;2.50;;;1.53;;
9892;SDS011;4985;49.092;8.542;2022-09-21T02:47:07;2.97;;;1.50;;
9892;SDS011;4985;49.092;8.542;2022-09-21T02:49:40;1.57;;;1.47;;
9892;SDS011;4985;49.092;8.542;2022-09-21T02:52:11;1.57;;;1.47;;
9892;SDS011;4985;49.092;8.542;2022-09-21T02:54:41;2.23;;;1.70;;
9892;SDS011;4985;49.092;8.542;2022-09-21T02:57:11;1.23;;;1.13;;
9892;SDS011;4985;49.092;8.542;2022-09-21T02:59:39;1.57;;;1.47;;
9892;SDS011;4985;49.092;8.542;2022-09-21T03:02:07;4.80;;;1.23;;
9892;SDS011;4985;49.092;8.542;2022-09-21T03:04:35;2.73;;;1.73;;
9892;SDS011;4985;49.092;8.542;2022-09-21T03:07:02;1.67;;;1.50;;
9892;SDS011;4985;49.092;8.542;2022-09-21T03:09:28;4.90;;;1.43;;
9892;SDS011;4985;49.092;8.542;2022-09-21T03:11:55;1.90;;;1.40;;
9892;SDS011;4985;49.092;8.542;2022-09-21T03:14:22;3.23;;;1.43;;
9892;SDS011;4985;49.092;8.542;2022-09-21T03:16:48;3.07;;;1.40;;
9892;SDS011;4985;49.092;8.542;2022-09-21T03:19:16;2.40;;;1.27;;
9892;SDS011;4985;49.092;8.542;2022-09-21T03:21:43;3.90;;;1.70;;
9892;SDS011;4985;49.092;8.542;2022-09-21T03:24:10;2.47;;;1.60;;
9892;SDS011;4985;49.092;8.542;2022-09-21T03:26:37;1.90;;;1.50;;
9892;SDS011;4985;49.092;8.542;2022-09-21T03:29:03;2.47;;;1.73;;
9892;SDS011;4985;49.092;8.542;2022-09-21T03:31:30;3.50;;;1.77;;
9892;SDS011;4985;49.092;8.542;2022-09-21T03:33:58;2.13;;;1.70;;
9892;SDS011;4985;49.092;8.542;2022-09-21T03:36:26;2.70;;;1.50;;
9892;SDS011;4985;49.092;8.542;2022-09-21T03:38:52;4.83;;;1.67;;
9892;SDS011;4985;49.092;8.542;2022-09-21T03:41:19;1.47;;;1.37;;
9892;SDS011;4985;49.092;8.542;2022-09-21T03:43:46;2.10;;;1.57;;
9892;SDS011;4985;49.092;8.542;2022-09-21T03:46:13;6.07;;;2.03;;
9892;SDS011;4985;49.092;8.542;2022-09-21T03:48:40;1.50;;;1.40;;
9892;SDS011;4985;49.092;8.542;2022-09-21T03:51:11;1.93;;;1.60;;
9892;SDS011;4985;49.092;8.542;2022-09-21T03:53:39;1.90;;;1.70;;
9892;SDS011;4985;49.092;8.542;2022-09-21T03:56:06;2.57;;;1.50;;
9892;SDS011;4985;49.092;8.542;2022-09-21T03:58:32;2.30;;;1.73;;
9892;SDS011;4985;49.092;8.542;2022-09-21T04:00:59;2.43;;;1.70;;
9892;SDS011;4985;49.092;8.542;2022-09-21T04:03:27;1.87;;;1.50;;
9892;SDS011;4985;49.092;8.542;2022-09-21T04:05:54;2.17;;;1.50;;
9892;SDS011;4985;49.092;8.542;2022-09-21T04:08:20;1.60;;;1.47;;
9892;SDS011;4985;49.092;8.542;2022-09-21T04:10:48;1.60;;;1.50;;
9892;SDS011;4985;49.092;8.542;2022-09-21T04:13:15;2.60;;;1.70;;
9892;SDS011;4985;49.092;8.542;2022-09-21T04:15:42;3.27;;;1.80;;
9892;SDS011;4985;49.092;8.542;2022-09-21T04:18:08;2.80;;;2.07;;
9892;SDS011;4985;49.092;8.542;2022-09-21T04:20:36;1.70;;;1.50;;
9892;SDS011;4985;49.092;8.542;2022-09-21T04:23:02;1.70;;;1.40;;
9892;SDS011;4985;49.092;8.542;2022-09-21T04:25:29;2.07;;;1.63;;
9892;SDS011;4985;49.092;8.542;2022-09-21T04:27:59;1.57;;;1.33;;
9892;SDS011;4985;49.092;8.542;2022-09-21T04:30:25;1.43;;;1.33;;
9892;SDS011;4985;49.092;8.542;2022-09-21T04:32:53;1.70;;;1.50;;
9892;SDS011;4985;49.092;8.542;2022-09-21T04:35:19;4.33;;;1.50;;
9892;SDS011;4985;49.092;8.542;2022-09-21T04:37:46;4.00;;;1.83;;
9892;SDS011;4985;49.092;8.542;2022-09-21T04:40:13;2.00;;;1.27;;
9892;SDS011;4985;49.092;8.542;2022-09-21T04:42:39;2.70;;;1.73;;
9892;SDS011;4985;49.092;8.542;2022-09-21T04:45:08;4.53;;;2.50;;
9892;SDS011;4985;49.092;8.542;2022-09-21T04:47:35;5.37;;;3.10;;
9892;SDS011;4985;49.092;8.542;2022-09-21T04:50:02;3.63;;;1.93;;
9892;SDS011;4985;49.092;8.542;2022-09-21T04:52:29;3.90;;;1.83;;
9892;SDS011;4985;49.092;8.542;2022-09-21T04:54:56;1.93;;;1.77;;
9892;SDS011;4985;49.092;8.542;2022-09-21T04:57:23;3.27;;;2.60;;
9892;SDS011;4985;49.092;8.542;2022-09-21T04:59:50;2.03;;;1.67;;
9892;SDS011;4985;49.092;8.542;2022-09-21T05:02:18;2.30;;;1.43;;
9892;SDS011;4985;49.092;8.542;2022-09-21T05:04:44;6.23;;;1.70;;
9892;SDS011;4985;49.092;8.542;2022-09-21T05:07:11;2.67;;;2.00;;
9892;SDS011;4985;49.092;8.542;2022-09-21T05:09:37;2.87;;;1.63;;
9892;SDS011;4985;49.092;8.542;2022-09-21T05:12:22;3.30;;;1.77;;
9892;SDS011;4985;49.092;8.542;2022-09-21T05:14:48;1.93;;;1.70;;
9892;SDS011;4985;49.092;8.542;2022-09-21T05:17:15;2.20;;;1.70;;
9892;SDS011;4985;49.092;8.542;2022-09-21T05:19:43;2.20;;;1.40;;
9892;SDS011;4985;49.092;8.542;2022-09-21T05:22:09;1.53;;;1.43;;
9892;SDS011;4985;49.092;8.542;2022-09-21T05:24:36;1.30;;;1.20;;
9892;SDS011;4985;49.092;8.542;2022-09-21T05:27:03;2.00;;;1.60;;
9892;SDS011;4985;49.092;8.542;2022-09-21T05:29:30;1.73;;;1.33;;
9892;SDS011;4985;49.092;8.542;2022-09-21T05:32:00;6.90;;;1.83;;
9892;SDS011;4985;49.092;8.542;2022-09-21T05:34:37;2.70;;;1.73;;
9892;SDS011;4985;49.092;8.542;2022-09-21T05:37:17;4.43;;;1.60;;
9892;SDS011;4985;49.092;8.542;2022-09-21T05:40:03;1.90;;;1.70;;
9892;SDS011;4985;49.092;8.542;2022-09-21T05:42:31;1.70;;;1.60;;
9892;SDS011;4985;49.092;8.542;2022-09-21T05:44:59;4.80;;;1.93;;
9892;SDS011;4985;49.092;8.542;2022-09-21T05:47:27;5.90;;;1.80;;
9892;SDS011;4985;49.092;8.542;2022-09-21T05:50:04;2.03;;;1.40;;
9892;SDS011;4985;49.092;8.542;2022-09-21T05:52:49;3.00;;;1.63;;
9892;SDS011;4985;49.092;8.542;2022-09-21T05:55:28;3.53;;;1.90;;
9892;SDS011;4985;49.092;8.542;2022-09-21T05:58:08;3.87;;;2.00;;
9892;SDS011;4985;49.092;8.542;2022-09-21T06:00:44;4.73;;;1.83;;
9892;SDS011;4985;49.092;8.542;2022-09-21T06:03:24;2.93;;;1.80;;
9892;SDS011;4985;49.092;8.542;2022-09-21T06:05:54;5.27;;;2.00;;
9892;SDS011;4985;49.092;8.542;2022-09-21T06:08:21;2.80;;;2.07;;
9892;SDS011;4985;49.092;8.542;2022-09-21T06:10:48;4.47;;;1.77;;
9892;SDS011;4985;49.092;8.542;2022-09-21T06:13:15;3.20;;;1.80;;
9892;SDS011;4985;49.092;8.542;2022-09-21T06:15:42;7.70;;;2.10;;
9892;SDS011;4985;49.092;8.542;2022-09-21T06:18:08;3.13;;;1.90;;
9892;SDS011;4985;49.092;8.542;2022-09-21T06:20:36;3.73;;;1.77;;
9892;SDS011;4985;49.092;8.542;2022-09-21T06:23:05;3.20;;;1.80;;
9892;SDS011;4985;49.092;8.542;2022-09-21T06:25:32;3.30;;;1.97;;
9892;SDS011;4985;49.092;8.542;2022-09-21T06:28:03;3.07;;;2.20;;
9892;SDS011;4985;49.092;8.542;2022-09-21T06:30:30;7.87;;;2.27;;
9892;SDS011;4985;49.092;8.542;2022-09-21T06:32:58;4.83;;;1.97;;
9892;SDS011;4985;49.092;8.542;2022-09-21T06:35:26;6.70;;;2.07;;
9892;SDS011;4985;49.092;8.542;2022-09-21T06:37:56;7.37;;;2.43;;
9892;SDS011;4985;49.092;8.542;2022-09-21T06:40:24;5.63;;;2.20;;
9892;SDS011;4985;49.092;8.542;2022-09-21T06:42:54;4.47;;;2.30;;
9892;SDS011;4985;49.092;8.542;2022-09-21T06:45:21;3.60;;;2.50;;
9892;SDS011;4985;49.092;8.542;2022-09-21T06:47:48;3.23;;;2.07;;
9892;SDS011;4985;49.092;8.542;2022-09-21T06:50:14;2.47;;;2.10;;
9892;SDS011;4985;49.092;8.542;2022-09-21T06:52:41;3.73;;;2.37;;
9892;SDS011;4985;49.092;8.542;2022-09-21T06:55:08;4.87;;;2.53;;
9892;SDS011;4985;49.092;8.542;2022-09-21T06:57:36;6.07;;;2.80;;
9892;SDS011;4985;49.092;8.542;2022-09-21T07:00:03;3.13;;;2.30;;
9892;SDS011;4985;49.092;8.542;2022-09-21T07:02:31;5.13;;;2.87;;
9892;SDS011;4985;49.092;8.542;2022-09-21T07:04:58;6.37;;;2.80;;
9892;SDS011;4985;49.092;8.542;2022-09-21T07:07:24;3.70;;;2.77;;
9892;SDS011;4985;49.092;8.542;2022-09-21T07:09:51;4.07;;;2.63;;
9892;SDS011;4985;49.092;8.542;2022-09-21T07:12:18;6.80;;;4.00;;
9892;SDS011;4985;49.092;8.542;2022-09-21T07:14:46;4.13;;;2.83;;
9892;SDS011;4985;49.092;8.542;2022-09-21T07:17:12;3.90;;;2.57;;
9892;SDS011;4985;49.092;8.542;2022-09-21T07:19:39;3.67;;;2.77;;
9892;SDS011;4985;49.092;8.542;2022-09-21T07:22:06;6.90;;;2.63;;
9892;SDS011;4985;49.092;8.542;2022-09-21T07:24:33;4.03;;;2.60;;
9892;SDS011;4985;49.092;8.542;2022-09-21T07:26:59;2.80;;;2.47;;
9892;SDS011;4985;49.092;8.542;2022-09-21T07:29:26;5.40;;;3.40;;
9892;SDS011;4985;49.092;8.542;2022-09-21T07:31:54;3.40;;;2.53;;
9892;SDS011;4985;49.092;8.542;2022-09-21T07:34:20;4.03;;;3.07;;
9892;SDS011;4985;49.092;8.542;2022-09-21T07:36:47;4.00;;;2.70;;
9892;SDS011;4985;49.092;8.542;2022-09-21T07:39:14;3.63;;;2.87;;
9892;SDS011;4985;49.092;8.542;2022-09-21T07:41:40;3.97;;;2.77;;
9892;SDS011;4985;49.092;8.542;2022-09-21T07:44:07;5.90;;;3.30;;
9892;SDS011;4985;49.092;8.542;2022-09-21T07:46:33;3.37;;;2.80;;
9892;SDS011;4985;49.092;8.542;2022-09-21T07:49:02;5.37;;;3.30;;
9892;SDS011;4985;49.092;8.542;2022-09-21T07:51:30;5.70;;;3.17;;
9892;SDS011;4985;49.092;8.542;2022-09-21T07:53:57;4.43;;;2.80;;
9892;SDS011;4985;49.092;8.542;2022-09-21T07:56:23;5.90;;;3.10;;
9892;SDS011;4985;49.092;8.542;2022-09-21T07:58:50;3.97;;;3.00;;
9892;SDS011;4985;49.092;8.542;2022-09-21T08:01:31;5.20;;;2.80;;
9892;SDS011;4985;49.092;8.542;2022-09-21T08:04:00;7.83;;;3.17;;
9892;SDS011;4985;49.092;8.542;2022-09-21T08:06:29;7.43;;;3.27;;
9892;SDS011;4985;49.092;8.542;2022-09-21T08:08:57;3.40;;;2.53;;
9892;SDS011;4985;49.092;8.542;2022-09-21T08:11:24;6.13;;;2.87;;
9892;SDS011;4985;49.092;8.542;2022-09-21T08:13:52;3.80;;;2.70;;
9892;SDS011;4985;49.092;8.542;2022-09-21T08:16:19;3.83;;;3.00;;
9892;SDS011;4985;49.092;8.542;2022-09-21T08:18:46;3.47;;;2.67;;
9892;SDS011;4985;49.092;8.542;2022-09-21T08:21:13;8.47;;;3.50;;
9892;SDS011;4985;49.092;8.542;2022-09-21T08:23:41;3.83;;;2.87;;
9892;SDS011;4985;49.092;8.542;2022-09-21T08:26:09;8.53;;;2.83;;
9892;SDS011;4985;49.092;8.542;2022-09-21T08:28:38;4.90;;;2.87;;
9892;SDS011;4985;49.092;8.542;2022-09-21T08:31:06;5.67;;;2.30;;
9892;SDS011;4985;49.092;8.542;2022-09-21T08:33:33;3.83;;;2.43;;
9892;SDS011;4985;49.092;8.542;2022-09-21T08:36:00;3.60;;;2.47;;
9892;SDS011;4985;49.092;8.542;2022-09-21T08:38:31;3.93;;;2.80;;
9892;SDS011;4985;49.092;8.542;2022-09-21T08:41:00;4.23;;;2.90;;
9892;SDS011;4985;49.092;8.542;2022-09-21T08:43:29;5.37;;;2.90;;
9892;SDS011;4985;49.092;8.542;2022-09-21T08:46:02;6.70;;;2.87;;
9892;SDS011;4985;49.092;8.542;2022-09-21T08:48:33;3.47;;;2.23;;
9892;SDS011;4985;49.092;8.542;2022-09-21T08:51:06;3.60;;;2.50;;
9892;SDS011;4985;49.092;8.542;2022-09-21T08:53:37;4.97;;;2.63;;
9892;SDS011;4985;49.092;8.542;2022-09-21T08:56:09;6.10;;;2.40;;
9892;SDS011;4985;49.092;8.542;2022-09-21T08:58:37;4.53;;;2.30;;
9892;SDS011;4985;49.092;8.542;2022-09-21T09:01:09;4.23;;;2.23;;
9892;SDS011;4985;49.092;8.542;2022-09-21T09:03:56;2.87;;;2.43;;
9892;SDS011;4985;49.092;8.542;2022-09-21T09:06:37;2.67;;;2.27;;
9892;SDS011;4985;49.092;8.542;2022-09-21T09:09:22;4.70;;;2.60;;
9892;SDS011;4985;49.092;8.542;2022-09-21T09:12:14;3.47;;;2.17;;
9892;SDS011;4985;49.092;8.542;2022-09-21T09:14:54;4.40;;;2.57;;
9892;SDS011;4985;49.092;8.542;2022-09-21T09:17:35;3.63;;;2.13;;
9892;SDS011;4985;49.092;8.542;2022-09-21T09:20:12;2.87;;;2.03;;
9892;SDS011;4985;49.092;8.542;2022-09-21T09:22:44;2.60;;;1.53;;
9892;SDS011;4985;49.092;8.542;2022-09-21T09:25:15;3.20;;;2.23;;
9892;SDS011;4985;49.092;8.542;2022-09-21T09:27:47;4.33;;;2.67;;
9892;SDS011;4985;49.092;8.542;2022-09-21T09:30:19;5.50;;;2.37;;
9892;SDS011;4985;49.092;8.542;2022-09-21T09:32:50;4.37;;;2.30;;
9892;SDS011;4985;49.092;8.542;2022-09-21T09:35:23;2.93;;;2.20;;
9892;SDS011;4985;49.092;8.542;2022-09-21T09:37:52;4.57;;;1.90;;
9892;SDS011;4985;49.092;8.542;2022-09-21T09:40:23;2.20;;;1.80;;
9892;SDS011;4985;49.092;8.542;2022-09-21T09:43:03;6.03;;;2.53;;
9892;SDS011;4985;49.092;8.542;2022-09-21T09:45:39;3.33;;;1.87;;
9892;SDS011;4985;49.092;8.542;2022-09-21T09:48:17;2.97;;;1.47;;
9892;SDS011;4985;49.092;8.542;2022-09-21T09:50:54;2.27;;;1.40;;
9892;SDS011;4985;49.092;8.542;2022-09-21T09:53:21;2.43;;;1.70;;
9892;SDS011;4985;49.092;8.542;2022-09-21T09:55:50;2.57;;;1.50;;
9892;SDS011;4985;49.092;8.542;2022-09-21T09:58:20;4.97;;;2.27;;
9892;SDS011;4985;49.092;8.542;2022-09-21T10:00:49;2.83;;;1.47;;
9892;SDS011;4985;49.092;8.542;2022-09-21T10:03:18;4.70;;;1.73;;
9892;SDS011;4985;49.092;8.542;2022-09-21T10:05:46;2.37;;;1.50;;
9892;SDS011;4985;49.092;8.542;2022-09-21T10:08:27;2.73;;;1.53;;
9892;SDS011;4985;49.092;8.542;2022-09-21T10:11:07;2.00;;;1.47;;
9892;SDS011;4985;49.092;8.542;2022-09-21T10:13:35;2.23;;;1.30;;
9892;SDS011;4985;49.092;8.542;2022-09-21T10:16:04;1.77;;;1.23;;
9892;SDS011;4985;49.092;8.542;2022-09-21T10:18:37;2.47;;;1.10;;
9892;SDS011;4985;49.092;8.542;2022-09-21T10:21:06;3.00;;;1.23;;
9892;SDS011;4985;49.092;8.542;2022-09-21T10:23:35;1.70;;;1.13;;
9892;SDS011;4985;49.092;8.542;2022-09-21T10:26:04;1.30;;;1.00;;
9892;SDS011;4985;49.092;8.542;2022-09-21T10:28:35;1.60;;;1.20;;
9892;SDS011;4985;49.092;8.542;2022-09-21T10:31:06;1.73;;;1.23;;
9892;SDS011;4985;49.092;8.542;2022-09-21T10:33:42;3.23;;;1.10;;
9892;SDS011;4985;49.092;8.542;2022-09-21T10:41:47;1.73;;;1.30;;
9892;SDS011;4985;49.092;8.542;2022-09-21T10:44:17;0.90;;;0.90;;
9892;SDS011;4985;49.092;8.542;2022-09-21T10:46:45;1.63;;;1.00;;
9892;SDS011;4985;49.092;8.542;2022-09-21T10:49:14;0.97;;;0.80;;
9892;SDS011;4985;49.092;8.542;2022-09-21T10:51:46;2.07;;;1.10;;
9892;SDS011;4985;49.092;8.542;2022-09-21T10:54:18;1.00;;;0.80;;
9892;SDS011;4985;49.092;8.542;2022-09-21T10:56:48;1.10;;;1.00;;
9892;SDS011;4985;49.092;8.542;2022-09-21T10:59:23;1.00;;;0.80;;
9892;SDS011;4985;49.092;8.542;2022-09-21T11:01:51;2.13;;;1.00;;
9892;SDS011;4985;49.092;8.542;2022-09-21T11:04:22;1.70;;;0.77;;
9892;SDS011;4985;49.092;8.542;2022-09-21T11:06:56;1.27;;;0.80;;
9892;SDS011;4985;49.092;8.542;2022-09-21T11:09:28;1.80;;;0.90;;
9892;SDS011;4985;49.092;8.542;2022-09-21T11:12:06;1.13;;;0.80;;
9892;SDS011;4985;49.092;8.542;2022-09-21T11:14:44;2.13;;;0.83;;
9892;SDS011;4985;49.092;8.542;2022-09-21T11:17:19;1.73;;;0.60;;
9892;SDS011;4985;49.092;8.542;2022-09-21T11:20:03;1.43;;;0.97;;
9892;SDS011;4985;49.092;8.542;2022-09-21T11:22:41;0.80;;;0.80;;
9892;SDS011;4985;49.092;8.542;2022-09-21T11:25:19;0.60;;;0.60;;
9892;SDS011;4985;49.092;8.542;2022-09-21T11:27:53;0.77;;;0.77;;
9892;SDS011;4985;49.092;8.542;2022-09-21T11:30:28;1.90;;;1.23;;
9892;SDS011;4985;49.092;8.542;2022-09-21T11:33:06;0.80;;;0.80;;
9892;SDS011;4985;49.092;8.542;2022-09-21T11:35:46;0.60;;;0.60;;
9892;SDS011;4985;49.092;8.542;2022-09-21T11:38:25;2.13;;;0.77;;
9892;SDS011;4985;49.092;8.542;2022-09-21T11:41:05;1.07;;;0.70;;
9892;SDS011;4985;49.092;8.542;2022-09-21T11:43:50;1.20;;;1.00;;
9892;SDS011;4985;49.092;8.542;2022-09-21T11:46:29;1.73;;;0.90;;
9892;SDS011;4985;49.092;8.542;2022-09-21T11:49:15;2.53;;;0.90;;
9892;SDS011;4985;49.092;8.542;2022-09-21T11:51:58;2.40;;;0.87;;
9892;SDS011;4985;49.092;8.542;2022-09-21T11:54:41;1.97;;;1.00;;
9892;SDS011;4985;49.092;8.542;2022-09-21T11:57:19;0.60;;;0.60;;
9892;SDS011;4985;49.092;8.542;2022-09-21T12:05:53;2.23;;;0.80;;
9892;SDS011;4985;49.092;8.542;2022-09-21T12:08:41;1.17;;;0.63;;
9892;SDS011;4985;49.092;8.542;2022-09-21T12:11:27;2.40;;;0.90;;
9892;SDS011;4985;49.092;8.542;2022-09-21T12:14:01;0.70;;;0.70;;
9892;SDS011;4985;49.092;8.542;2022-09-21T12:16:37;1.50;;;1.03;;
9892;SDS011;4985;49.092;8.542;2022-09-21T12:19:14;1.60;;;1.07;;
9892;SDS011;4985;49.092;8.542;2022-09-21T12:21:49;2.20;;;1.10;;
9892;SDS011;4985;49.092;8.542;2022-09-21T12:24:22;3.73;;;1.17;;
9892;SDS011;4985;49.092;8.542;2022-09-21T12:26:53;1.90;;;1.40;;
9892;SDS011;4985;49.092;8.542;2022-09-21T12:29:23;1.53;;;1.00;;
9892;SDS011;4985;49.092;8.542;2022-09-21T12:31:56;1.20;;;1.00;;
9892;SDS011;4985;49.092;8.542;2022-09-21T12:34:30;1.70;;;1.23;;
9892;SDS011;4985;49.092;8.542;2022-09-21T12:37:06;3.37;;;0.80;;
9892;SDS011;4985;49.092;8.542;2022-09-21T12:39:38;3.03;;;1.50;;
9892;SDS011;4985;49.092;8.542;2022-09-21T12:42:10;1.07;;;0.90;;
9892;SDS011;4985;49.092;8.542;2022-09-21T12:44:51;0.80;;;0.80;;
9892;SDS011;4985;49.092;8.542;2022-09-21T12:47:23;1.87;;;1.13;;
9892;SDS011;4985;49.092;8.542;2022-09-21T12:49:57;1.23;;;1.13;;
9892;SDS011;4985;49.092;8.542;2022-09-21T12:52:30;1.33;;;0.77;;
9892;SDS011;4985;49.092;8.542;2022-09-21T12:55:00;1.00;;;0.87;;
9892;SDS011;4985;49.092;8.542;2022-09-21T12:57:42;1.37;;;1.00;;
9892;SDS011;4985;49.092;8.542;2022-09-21T13:00:17;3.17;;;0.90;;
9892;SDS011;4985;49.092;8.542;2022-09-21T13:02:48;1.10;;;0.90;;
9892;SDS011;4985;49.092;8.542;2022-09-21T13:05:22;1.10;;;1.00;;
9892;SDS011;4985;49.092;8.542;2022-09-21T13:08:02;2.03;;;1.10;;
9892;SDS011;4985;49.092;8.542;2022-09-21T13:10:36;2.60;;;1.00;;
9892;SDS011;4985;49.092;8.542;2022-09-21T13:13:12;1.80;;;1.00;;
9892;SDS011;4985;49.092;8.542;2022-09-21T13:15:43;0.77;;;0.77;;
9892;SDS011;4985;49.092;8.542;2022-09-21T13:18:16;1.90;;;0.80;;
9892;SDS011;4985;49.092;8.542;2022-09-21T13:20:47;1.60;;;1.10;;
9892;SDS011;4985;49.092;8.542;2022-09-21T13:23:17;1.47;;;0.83;;
9892;SDS011;4985;49.092;8.542;2022-09-21T13:25:47;1.53;;;0.60;;
9892;SDS011;4985;49.092;8.542;2022-09-21T13:28:18;0.97;;;0.80;;
9892;SDS011;4985;49.092;8.542;2022-09-21T13:30:48;0.90;;;0.80;;
9892;SDS011;4985;49.092;8.542;2022-09-21T13:33:39;1.30;;;1.10;;
9892;SDS011;4985;49.092;8.542;2022-09-21T13:36:27;0.63;;;0.60;;
9892;SDS011;4985;49.092;8.542;2022-09-21T13:38:57;1.73;;;0.70;;
9892;SDS011;4985;49.092;8.542;2022-09-21T13:41:44;0.80;;;0.80;;
9892;SDS011;4985;49.092;8.542;2022-09-21T13:44:21;0.60;;;0.60;;
9892;SDS011;4985;49.092;8.542;2022-09-21T13:47:03;0.97;;;0.83;;
9892;SDS011;4985;49.092;8.542;2022-09-21T13:49:31;1.20;;;1.00;;
9892;SDS011;4985;49.092;8.542;2022-09-21T13:52:07;2.23;;;0.80;;
9892;SDS011;4985;49.092;8.542;2022-09-21T13:54:56;1.80;;;0.70;;
9892;SDS011;4985;49.092;8.542;2022-09-21T13:57:27;1.20;;;0.70;;
9892;SDS011;4985;49.092;8.542;2022-09-21T14:02:57;0.83;;;0.70;;
9892;SDS011;4985;49.092;8.542;2022-09-21T14:05:29;3.83;;;0.90;;
9892;SDS011;4985;49.092;8.542;2022-09-21T14:08:01;2.13;;;0.77;;
9892;SDS011;4985;49.092;8.542;2022-09-21T14:10:30;0.60;;;0.60;;
9892;SDS011;4985;49.092;8.542;2022-09-21T14:13:00;0.50;;;0.50;;
9892;SDS011;4985;49.092;8.542;2022-09-21T14:15:31;0.87;;;0.80;;
9892;SDS011;4985;49.092;8.542;2022-09-21T14:18:08;2.20;;;1.10;;
9892;SDS011;4985;49.092;8.542;2022-09-21T14:21:09;2.50;;;1.03;;
9892;SDS011;4985;49.092;8.542;2022-09-21T14:27:01;3.73;;;0.70;;
9892;SDS011;4985;49.092;8.542;2022-09-21T14:29:38;0.93;;;0.80;;
9892;SDS011;4985;49.092;8.542;2022-09-21T14:32:12;1.40;;;1.10;;
9892;SDS011;4985;49.092;8.542;2022-09-21T14:34:43;1.37;;;0.80;;
9892;SDS011;4985;49.092;8.542;2022-09-21T14:37:20;1.00;;;0.90;;
9892;SDS011;4985;49.092;8.542;2022-09-21T14:39:53;0.70;;;0.70;;
9892;SDS011;4985;49.092;8.542;2022-09-21T14:42:22;1.70;;;1.20;;
9892;SDS011;4985;49.092;8.542;2022-09-21T14:44:51;1.67;;;1.17;;
9892;SDS011;4985;49.092;8.542;2022-09-21T14:47:31;0.70;;;0.70;;
9892;SDS011;4985;49.092;8.542;2022-09-21T14:50:11;1.03;;;0.80;;
9892;SDS011;4985;49.092;8.542;2022-09-21T14:52:52;3.83;;;1.00;;
9892;SDS011;4985;49.092;8.542;2022-09-21T14:55:51;1.20;;;1.00;;
9892;SDS011;4985;49.092;8.542;2022-09-21T14:58:37;1.03;;;0.80;;
9892;SDS011;4985;49.092;8.542;2022-09-21T15:01:20;1.50;;;1.00;;
9892;SDS011;4985;49.092;8.542;2022-09-21T15:06:58;1.00;;;0.90;;
9892;SDS011;4985;49.092;8.542;2022-09-21T15:09:59;0.80;;;0.80;;
9892;SDS011;4985;49.092;8.542;2022-09-21T15:12:58;2.40;;;0.80;;
9892;SDS011;4985;49.092;8.542;2022-09-21T15:15:33;2.70;;;0.97;;
9892;SDS011;4985;49.092;8.542;2022-09-21T15:18:12;0.97;;;0.90;;
9892;SDS011;4985;49.092;8.542;2022-09-21T15:20:49;1.27;;;0.80;;
9892;SDS011;4985;49.092;8.542;2022-09-21T15:23:26;1.03;;;0.93;;
9892;SDS011;4985;49.092;8.542;2022-09-21T15:25:55;0.97;;;0.83;;
9892;SDS011;4985;49.092;8.542;2022-09-21T15:28:27;0.87;;;0.80;;
9892;SDS011;4985;49.092;8.542;2022-09-21T15:31:02;0.70;;;0.70;;
9892;SDS011;4985;49.092;8.542;2022-09-21T15:33:31;0.73;;;0.73;;
9892;SDS011;4985;49.092;8.542;2022-09-21T15:36:02;1.90;;;0.90;;
9892;SDS011;4985;49.092;8.542;2022-09-21T15:38:30;0.67;;;0.67;;
9892;SDS011;4985;49.092;8.542;2022-09-21T15:41:00;0.93;;;0.80;;
9892;SDS011;4985;49.092;8.542;2022-09-21T15:43:27;0.73;;;0.73;;
9892;SDS011;4985;49.092;8.542;2022-09-21T15:45:55;1.00;;;0.90;;
9892;SDS011;4985;49.092;8.542;2022-09-21T15:48:25;0.70;;;0.70;;
9892;SDS011;4985;49.092;8.542;2022-09-21T15:50:59;0.90;;;0.90;;
9892;SDS011;4985;49.092;8.542;2022-09-21T15:53:32;0.93;;;0.70;;
9892;SDS011;4985;49.092;8.542;2022-09-21T15:56:03;0.90;;;0.90;;
9892;SDS011;4985;49.092;8.542;2022-09-21T15:58:31;0.93;;;0.80;;
9892;SDS011;4985;49.092;8.542;2022-09-21T16:01:01;1.07;;;0.90;;
9892;SDS011;4985;49.092;8.542;2022-09-21T16:03:35;0.73;;;0.73;;
9892;SDS011;4985;49.092;8.542;2022-09-21T16:06:16;1.20;;;0.90;;